Time;durP1;ratioP1;P1;durP2;ratioP2;P2;SDS_P1;SDS_P2;PMS_P1;PMS_P2;Temp;Humidity;BMP_temperature;BMP_pressure;BME280_temperature;BME280_humidity;BME280_pressure;Samples;Min_cycle;Max_cycle;Signal;HPM_P1;HPM_P2
2024/01/31 00:01:50;;;;;;;0.20;0.20;;;;;;;0.33;47.48;103411.41;6177389;23;20378;-90
2024/01/31 00:04:18;;;;;;;0.40;0.30;;;;;;;0.37;46.71;103407.84;6160199;23;20369;-90
2024/01/31 00:06:56;;;;;;;0.20;0.20;;;;;;;0.41;47.01;103416.44;6158474;23;20358;-91
2024/01/31 00:09:24;;;;;;;0.20;0.20;;;;;;;0.36;47.21;103413.09;6161022;23;20377;-92
2024/01/31 00:11:50;;;;;;;0.20;0.20;;;;;;;0.34;47.12;103417.47;6177472;23;20366;-93
2024/01/31 00:14:19;;;;;;;0.17;0.17;;;;;;;0.36;47.38;103423.53;6178753;23;20413;-93
2024/01/31 00:16:53;;;;;;;0.20;0.20;;;;;;;0.38;47.00;103424.38;6237811;22;20393;-94
2024/01/31 00:19:29;;;;;;;0.35;0.35;;;;;;;0.42;46.78;103422.53;6215325;22;20351;-95
2024/01/31 00:22:03;;;;;;;0.13;0.13;;;;;;;0.39;47.23;103413.03;6210263;23;20401;-95
2024/01/31 00:24:31;;;;;;;0.30;0.30;;;;;;;0.41;47.02;103426.03;6188539;23;20827;-95
2024/01/31 00:26:59;;;;;;;0.20;0.20;;;;;;;0.37;47.09;103420.88;6189177;23;20480;-95
2024/01/31 00:29:25;;;;;;;0.28;0.28;;;;;;;0.29;46.99;103424.56;6191596;23;20355;-95
2024/01/31 00:31:51;;;;;;;0.32;0.32;;;;;;;0.28;46.96;103430.69;6201085;23;20485;-94
2024/01/31 00:34:20;;;;;;;0.45;0.45;;;;;;;0.20;47.55;103420.44;6210159;23;20452;-94
2024/01/31 00:41:29;;;;;;;0.13;0.13;;;;;;;0.16;47.46;103419.66;6136725;23;20344;-96
2024/01/31 00:48:30;;;;;;;;;;;;;;;;;;;;;
2024/01/31 00:50:56;;;;;;;0.60;0.60;;;;;;;0.06;47.51;103409.47;6079705;23;20856;-93
2024/01/31 00:53:31;;;;;;;0.60;0.60;;;;;;;0.04;47.48;103412.09;6184446;23;20392;-92
2024/01/31 00:55:57;;;;;;;0.70;0.70;;;;;;;0.00;47.60;103413.06;6183418;23;20720;-92
2024/01/31 00:58:23;;;;;;;0.20;0.20;;;;;;;-0.31;48.23;103405.91;6184650;23;20361;-93
2024/01/31 01:00:53;;;;;;;0.17;0.17;;;;;;;-0.37;48.07;103399.97;6185500;23;20507;-92
2024/01/31 01:03:19;;;;;;;0.30;0.30;;;;;;;-0.35;48.08;103413.84;6185787;23;20344;-92
2024/01/31 01:06:11;;;;;;;0.20;0.20;;;;;;;-0.47;48.46;103405.41;6186701;23;20365;-95
2024/01/31 01:09:34;;;;;;;0.57;0.57;;;;;;;-0.72;48.71;103410.25;6201170;23;20364;-96
2024/01/31 01:14:34;;;;;;;0.30;0.30;;;;;;;-0.73;49.10;103402.44;6239877;22;20442;-94
2024/01/31 01:16:59;;;;;;;0.20;0.20;;;;;;;-0.52;48.45;103393.31;6213707;23;20351;-92
2024/01/31 01:19:25;;;;;;;0.30;0.30;;;;;;;-0.40;48.28;103401.78;6217822;23;20343;-90
2024/01/31 01:21:53;;;;;;;0.10;0.10;;;;;;;-0.54;48.44;103395.09;6187536;23;20355;-88
2024/01/31 01:24:19;;;;;;;0.13;0.13;;;;;;;-0.42;48.39;103389.66;6189084;23;20390;-95
2024/01/31 01:26:47;;;;;;;0.40;0.40;;;;;;;-0.27;47.83;103397.16;6153703;23;20390;-91
2024/01/31 01:29:13;;;;;;;0.60;0.60;;;;;;;-0.29;47.78;103383.28;6153592;23;20353;-91
2024/01/31 01:31:39;;;;;;;0.27;0.27;;;;;;;-0.28;48.03;103373.72;6129085;23;20358;-89
2024/01/31 01:34:07;;;;;;;0.20;0.20;;;;;;;-0.26;47.91;103380.59;6130335;23;20449;-91
2024/01/31 01:36:33;;;;;;;0.32;0.32;;;;;;;-0.24;47.90;103368.38;6130192;23;20362;-90
2024/01/31 01:38:58;;;;;;;0.10;0.10;;;;;;;-0.26;48.35;103380.59;6130031;23;20362;-90
2024/01/31 01:41:24;;;;;;;0.10;0.10;;;;;;;-0.52;48.46;103375.09;6128511;23;20714;-90
2024/01/31 01:43:53;;;;;;;0.20;0.20;;;;;;;-0.65;48.70;103377.97;6127611;23;20369;-90
2024/01/31 01:46:21;;;;;;;0.20;0.20;;;;;;;-0.64;48.90;103358.81;6126654;23;20924;-90
2024/01/31 01:48:53;;;;;;;0.25;0.25;;;;;;;-0.52;48.75;103375.09;6126667;23;20358;-89
2024/01/31 01:51:23;;;;;;;0.20;0.20;;;;;;;-0.44;48.50;103367.97;6125145;23;20413;-90
2024/01/31 01:53:51;;;;;;;0.10;0.10;;;;;;;-0.30;48.33;103372.91;6124873;23;20359;-89
2024/01/31 01:56:22;;;;;;;0.20;0.20;;;;;;;-0.31;48.02;103368.56;6125036;23;20774;-91
2024/01/31 01:58:48;;;;;;;0.27;0.27;;;;;;;-0.38;48.33;103373.03;6182475;23;20355;-90
2024/01/31 02:01:15;;;;;;;1.00;1.00;;;;;;;-0.60;48.75;103377.84;6185183;23;20698;-90
2024/01/31 02:03:43;;;;;;;0.90;0.80;;;;;;;-0.67;49.14;103373.66;6185583;23;20355;-90
2024/01/31 02:06:09;;;;;;;1.60;1.50;;;;;;;-0.83;49.52;103375.72;6186363;23;20818;-90
2024/01/31 02:08:38;;;;;;;0.70;0.70;;;;;;;-0.88;49.84;103370.59;6189684;23;20386;-93
2024/01/31 02:11:12;;;;;;;0.25;0.25;;;;;;;-0.99;49.80;103368.22;6191453;23;20432;-94
2024/01/31 02:13:44;;;;;;;1.83;1.15;;;;;;;-1.05;50.27;103372.66;6202143;23;20370;-94
2024/01/31 02:16:12;;;;;;;0.77;0.73;;;;;;;-1.18;50.56;103367.69;6232896;23;20366;-93
2024/01/31 02:18:45;;;;;;;0.30;0.30;;;;;;;-1.16;50.29;103354.66;6242146;23;20351;-95
2024/01/31 02:21:34;;;;;;;0.20;0.20;;;;;;;-0.98;50.37;103364.69;6234011;23;20371;-94
2024/01/31 02:24:05;;;;;;;0.10;0.10;;;;;;;-0.96;49.87;103362.06;6195937;23;20468;-92
2024/01/31 02:26:34;;;;;;;0.45;0.45;;;;;;;-0.88;49.75;103367.13;6217186;23;20426;-92
2024/01/31 02:29:02;;;;;;;0.10;0.10;;;;;;;-1.00;50.00;103356.06;6217545;23;20427;-92
2024/01/31 02:31:28;;;;;;;0.23;0.23;;;;;;;-0.96;49.88;103344.69;6217029;23;20984;-92
2024/01/31 02:33:54;;;;;;;0.20;0.20;;;;;;;-0.81;49.60;103343.56;6218241;23;20378;-91
2024/01/31 02:36:19;;;;;;;0.20;0.20;;;;;;;-0.66;49.37;103347.59;6234738;23;20362;-92
2024/01/31 02:38:45;;;;;;;0.25;0.25;;;;;;;-0.72;49.04;103341.63;6241736;23;20382;-92
2024/01/31 02:41:14;;;;;;;0.17;0.17;;;;;;;-0.74;49.16;103356.44;6234480;23;20382;-93
2024/01/31 02:43:41;;;;;;;0.10;0.10;;;;;;;-0.75;49.36;103353.00;6219196;23;20386;-94
2024/01/31 02:46:10;;;;;;;0.60;0.60;;;;;;;-0.77;49.15;103342.59;6216822;23;20698;-92
2024/01/31 02:48:38;;;;;;;0.20;0.20;;;;;;;-0.74;49.36;103340.81;6214720;23;20433;-92
2024/01/31 02:51:06;;;;;;;2.00;1.50;;;;;;;-0.72;49.31;103345.13;6213949;23;20378;-94
2024/01/31 02:53:40;;;;;;;0.40;0.30;;;;;;;-0.60;49.10;103342.22;6214761;23;20362;-91
2024/01/31 02:56:11;;;;;;;0.20;0.20;;;;;;;-0.63;49.05;103323.22;6214633;23;20367;-94
2024/01/31 02:58:37;;;;;;;0.20;0.20;;;;;;;-0.59;48.96;103325.72;6215394;23;20351;-93
2024/01/31 03:01:07;;;;;;;0.38;0.38;;;;;;;-0.51;48.76;103324.69;6214664;23;20675;-93
2024/01/31 03:03:37;;;;;;;0.20;0.20;;;;;;;-0.45;48.65;103325.44;6216573;23;20358;-92
2024/01/31 03:06:03;;;;;;;0.20;0.20;;;;;;;-0.49;48.69;103323.75;6216524;23;20815;-93
2024/01/31 03:08:29;;;;;;;0.45;0.45;;;;;;;-0.44;48.74;103331.50;6216697;23;20372;-90
2024/01/31 03:10:55;;;;;;;0.40;0.40;;;;;;;-0.47;48.54;103335.03;6215179;23;20399;-89
2024/01/31 03:13:23;;;;;;;0.10;0.10;;;;;;;-0.50;48.48;103332.50;6214301;23;20354;-89
2024/01/31 03:15:51;;;;;;;0.30;0.30;;;;;;;-0.45;48.72;103337.59;6200369;23;20415;-91
2024/01/31 03:18:17;;;;;;;0.30;0.30;;;;;;;-0.36;48.51;103339.13;6199228;23;20822;-91
2024/01/31 03:20:54;;;;;;;0.20;0.20;;;;;;;-0.36;48.28;103318.28;6192213;23;20374;-92
2024/01/31 03:23:20;;;;;;;0.20;0.20;;;;;;;-0.30;48.17;103331.19;6191451;23;20355;-92
2024/01/31 03:25:48;;;;;;;0.20;0.20;;;;;;;-0.28;48.33;103325.03;6189135;23;20738;-91
2024/01/31 03:28:14;;;;;;;0.25;0.25;;;;;;;-0.18;48.35;103332.66;6189746;23;20351;-92
2024/01/31 03:30:42;;;;;;;0.20;0.20;;;;;;;-0.23;47.80;103315.38;6190647;23;20691;-92
2024/01/31 03:33:09;;;;;;;0.10;0.10;;;;;;;-0.25;47.90;103322.38;6191062;23;20850;-92
2024/01/31 03:35:40;;;;;;;0.10;0.10;;;;;;;-0.31;48.13;103322.50;6189037;23;20390;-91
2024/01/31 03:38:07;;;;;;;0.47;0.47;;;;;;;-0.30;47.97;103321.63;6188749;23;20960;-90
2024/01/31 03:40:33;;;;;;;0.20;0.20;;;;;;;-0.27;48.07;103318.06;6188730;23;20362;-91
2024/01/31 03:42:59;;;;;;;3.70;1.07;;;;;;;-0.31;47.98;103326.88;6214981;23;20346;-90
2024/01/31 03:45:32;;;;;;;0.10;0.10;;;;;;;-0.30;47.91;103324.22;6188692;23;20366;-91
2024/01/31 03:47:58;;;;;;;0.20;0.20;;;;;;;-0.28;48.04;103317.22;6186366;23;20366;-90
2024/01/31 03:50:27;;;;;;;1.60;1.50;;;;;;;-0.38;48.09;103318.31;6187435;23;20370;-93
2024/01/31 03:52:57;;;;;;;0.13;0.13;;;;;;;-0.33;48.01;103310.41;6187740;23;20366;-93
2024/01/31 03:55:32;;;;;;;0.80;0.40;;;;;;;-0.43;48.26;103308.00;6187713;23;20813;-93
2024/01/31 03:58:00;;;;;;;0.10;0.10;;;;;;;-0.45;48.27;103309.81;6189500;23;20355;-92
2024/01/31 04:00:26;;;;;;;0.40;0.40;;;;;;;-0.45;47.99;103306.31;6189561;23;20387;-92
2024/01/31 04:02:54;;;;;;;0.20;0.20;;;;;;;-0.44;48.10;103308.88;6189383;23;20695;-91
2024/01/31 04:05:30;;;;;;;0.30;0.30;;;;;;;-0.45;47.87;103309.81;6217010;23;20375;-91
2024/01/31 04:07:57;;;;;;;0.10;0.10;;;;;;;-0.50;48.17;103308.19;6189890;23;20354;-91
2024/01/31 04:10:23;;;;;;;0.80;0.80;;;;;;;-0.50;47.91;103319.47;6215695;23;20378;-91
2024/01/31 04:12:49;;;;;;;0.60;0.60;;;;;;;-0.48;48.27;103306.41;6189758;23;20355;-91
2024/01/31 04:15:17;;;;;;;0.20;0.20;;;;;;;-0.48;47.91;103312.47;6212518;23;20378;-91
2024/01/31 04:17:43;;;;;;;0.20;0.20;;;;;;;-0.47;48.07;103310.72;6225716;23;20351;-92
2024/01/31 04:20:12;;;;;;;0.40;0.40;;;;;;;-0.48;47.95;103311.63;6240761;23;20422;-91
2024/01/31 04:22:44;;;;;;;0.43;0.43;;;;;;;-0.48;48.05;103314.22;6235153;23;20371;-91
2024/01/31 04:25:15;;;;;;;1.00;0.70;;;;;;;-0.50;48.05;103313.41;6218083;23;20351;-91
2024/01/31 04:27:42;;;;;;;0.60;0.60;;;;;;;-0.51;47.82;103309.06;6216872;23;20438;-92
2024/01/31 04:30:12;;;;;;;0.47;0.47;;;;;;;-0.50;48.20;103316.00;6217274;23;20929;-93
2024/01/31 04:32:37;;;;;;;0.50;0.50;;;;;;;-0.64;48.06;103292.84;6217921;23;20358;-91
2024/01/31 04:35:16;;;;;;;0.30;0.30;;;;;;;-0.54;48.22;103315.22;6219318;23;20377;-91
2024/01/31 04:37:44;;;;;;;0.20;0.20;;;;;;;-0.58;47.96;103300.53;6220144;23;20390;-92
2024/01/31 04:40:10;;;;;;;0.30;0.30;;;;;;;-0.59;48.11;103307.50;6231200;23;20371;-92
2024/01/31 04:42:39;;;;;;;0.30;0.30;;;;;;;-0.59;48.09;103311.84;6237778;23;20422;-94
2024/01/31 04:45:13;;;;;;;0.77;0.77;;;;;;;-0.59;47.95;103307.50;6227855;23;20458;-92
2024/01/31 04:47:41;;;;;;;0.30;0.30;;;;;;;-0.49;48.06;103317.72;6216628;23;20903;-92
2024/01/31 04:50:09;;;;;;;0.40;0.40;;;;;;;-0.60;48.03;103317.94;6216938;23;20382;-90
2024/01/31 04:52:35;;;;;;;0.20;0.20;;;;;;;-0.63;48.04;103312.78;6213296;23;20433;-89
2024/01/31 04:55:00;;;;;;;0.20;0.20;;;;;;;-0.54;48.06;103317.81;6214068;23;20402;-89
2024/01/31 04:57:26;;;;;;;0.20;0.20;;;;;;;-0.51;47.92;103315.13;6214153;23;20434;-88
2024/01/31 04:59:52;;;;;;;0.50;0.50;;;;;;;-0.52;47.79;103302.13;6212705;23;20363;-86
2024/01/31 05:02:17;;;;;;;0.40;0.40;;;;;;;-0.50;47.85;103311.66;6212586;23;20416;-88
2024/01/31 05:04:45;;;;;;;0.87;0.87;;;;;;;-0.57;47.84;103312.66;6212266;23;20851;-88
2024/01/31 05:07:14;;;;;;;0.50;0.50;;;;;;;-0.64;47.97;103316.31;6212179;23;20363;-88
2024/01/31 05:09:40;;;;;;;0.47;0.47;;;;;;;-0.65;48.05;103314.56;6212802;23;20993;-89
2024/01/31 05:12:14;;;;;;;0.80;0.80;;;;;;;-0.66;48.08;103315.47;6216077;23;20366;-89
2024/01/31 05:14:43;;;;;;;0.17;0.17;;;;;;;-0.61;48.04;103324.91;6219524;23;20398;-92
2024/01/31 05:17:17;;;;;;;0.73;0.73;;;;;;;-0.68;47.98;103310.28;6195116;23;20363;-93
2024/01/31 05:19:46;;;;;;;0.50;0.50;;;;;;;-0.61;48.03;103309.28;6188917;23;20359;-88
2024/01/31 05:22:18;;;;;;;0.30;0.30;;;;;;;-0.64;48.13;103304.13;6188206;23;20359;-88
2024/01/31 05:24:49;;;;;;;0.57;0.57;;;;;;;-0.56;47.90;103308.31;6213876;23;20355;-87
2024/01/31 05:27:18;;;;;;;1.30;1.20;;;;;;;-0.60;47.85;103307.53;6190340;23;20387;-90
2024/01/31 05:29:44;;;;;;;0.80;0.80;;;;;;;-0.63;48.03;103307.56;6190852;23;20954;-88
2024/01/31 05:32:10;;;;;;;0.10;0.10;;;;;;;-0.62;48.07;103307.53;6191563;23;20386;-92
2024/01/31 05:34:44;;;;;;;0.30;0.30;;;;;;;-0.62;48.06;103306.69;6193494;23;20818;-91
2024/01/31 05:37:10;;;;;;;1.20;0.90;;;;;;;-0.55;48.02;103310.03;6202046;23;20365;-94
2024/01/31 05:39:37;;;;;;;1.03;1.03;;;;;;;-0.64;47.81;103311.09;6168314;23;20364;-93
2024/01/31 05:42:08;;;;;;;1.70;1.60;;;;;;;-0.56;47.90;103306.56;6144368;23;20425;-92
2024/01/31 05:44:38;;;;;;;0.55;0.55;;;;;;;-0.58;47.81;103308.34;6194120;23;20359;-92
2024/01/31 05:47:07;;;;;;;0.30;0.30;;;;;;;-0.70;47.97;103311.19;6168558;23;20355;-93
2024/01/31 05:49:33;;;;;;;0.77;0.77;;;;;;;-0.77;48.29;103302.69;6164046;23;20473;-92
2024/01/31 05:52:03;;;;;;;0.45;0.45;;;;;;;-0.78;48.19;103309.63;6137779;23;20358;-93
2024/01/31 05:54:29;;;;;;;0.63;0.63;;;;;;;-0.79;48.31;103310.53;6137598;23;20357;-93
2024/01/31 05:56:55;;;;;;;0.75;0.75;;;;;;;-0.80;48.10;103305.34;6139338;23;20351;-92
2024/01/31 05:59:25;;;;;;;0.10;0.10;;;;;;;-0.77;48.21;103306.13;6137189;23;20365;-91
2024/01/31 06:01:55;;;;;;;0.80;0.80;;;;;;;-0.73;48.05;103313.91;6157529;23;20365;-90
2024/01/31 06:04:27;;;;;;;0.20;0.20;;;;;;;-0.73;48.37;103317.34;6161735;23;20699;-94
2024/01/31 06:06:55;;;;;;;0.25;0.25;;;;;;;-0.80;48.26;103310.56;6151430;23;20358;-94
2024/01/31 06:09:21;;;;;;;0.90;0.90;;;;;;;-0.77;48.47;103315.72;6168832;23;20366;-93
2024/01/31 06:11:47;;;;;;;0.20;0.20;;;;;;;-0.83;48.32;103305.41;6198929;23;20403;-93
2024/01/31 06:14:13;;;;;;;0.40;0.40;;;;;;;-0.74;48.44;103312.16;6194504;23;20413;-93
2024/01/31 06:16:39;;;;;;;0.23;0.23;;;;;;;-0.78;48.47;103309.63;6195770;23;20360;-94
2024/01/31 06:19:05;;;;;;;0.10;0.10;;;;;;;-0.76;48.34;103301.78;6169209;23;20368;-94
2024/01/31 06:21:31;;;;;;;0.70;0.40;;;;;;;-0.63;48.21;103305.84;6227412;23;20402;-94
2024/01/31 06:23:59;;;;;;;1.60;0.90;;;;;;;-0.62;48.20;103298.88;6241439;22;20366;-93
2024/01/31 06:26:28;;;;;;;0.80;0.80;;;;;;;-0.63;48.16;103300.63;6190379;22;20398;-92
2024/01/31 06:28:59;;;;;;;0.60;0.60;;;;;;;-0.69;48.37;103292.94;6178331;23;20429;-93
2024/01/31 06:31:29;;;;;;;0.57;0.57;;;;;;;-0.64;48.31;103308.47;6175387;23;20834;-93
2024/01/31 06:33:59;;;;;;;0.55;0.55;;;;;;;-0.66;48.50;103303.31;6203036;23;20876;-91
2024/01/31 06:36:38;;;;;;;0.40;0.40;;;;;;;-0.66;48.23;103313.72;6158607;23;20390;-93
2024/01/31 06:39:03;;;;;;;0.40;0.40;;;;;;;-0.64;48.44;103321.50;6143904;23;20368;-92
2024/01/31 06:41:31;;;;;;;1.00;0.82;;;;;;;-0.71;48.45;103310.34;6141390;23;20367;-91
2024/01/31 06:46:28;;;;;;;0.27;0.27;;;;;;;-0.56;48.43;103324.78;6203730;23;20411;-87
2024/01/31 06:48:58;;;;;;;0.30;0.30;;;;;;;-0.53;48.56;103313.47;6160793;23;20369;-90
2024/01/31 06:51:25;;;;;;;0.40;0.40;;;;;;;-0.44;48.66;103308.88;6163105;23;20377;-89
2024/01/31 06:53:51;;;;;;;0.30;0.30;;;;;;;-0.33;48.57;103311.25;6161749;23;20364;-89
2024/01/31 06:56:19;;;;;;;0.40;0.40;;;;;;;-0.29;48.39;103312.91;6160155;23;20395;-89
2024/01/31 06:58:56;;;;;;;0.40;0.40;;;;;;;-0.23;48.34;103304.09;6159987;23;20455;-89
2024/01/31 07:01:22;;;;;;;1.55;1.45;;;;;;;-0.33;48.60;103303.44;6159788;23;20422;-91
2024/01/31 07:03:48;;;;;;;0.50;0.50;;;;;;;-0.41;49.07;103305.38;6159697;23;20364;-88
2024/01/31 07:06:15;;;;;;;0.20;0.20;;;;;;;-0.28;48.78;103301.59;6160168;23;20396;-90
2024/01/31 07:08:43;;;;;;;1.05;1.05;;;;;;;-0.21;48.75;103302.31;6160646;23;21118;-90
2024/01/31 07:11:09;;;;;;;0.40;0.40;;;;;;;-0.17;48.93;103303.94;6161958;23;20451;-88
2024/01/31 07:13:36;;;;;;;0.90;0.90;;;;;;;-0.08;49.00;103300.25;6161143;23;20368;-90
2024/01/31 07:16:09;;;;;;;1.13;0.82;;;;;;;-0.07;48.72;103289.81;6162899;23;20386;-95
2024/01/31 07:23:53;;;;;;;0.40;0.40;;;;;;;0.23;49.25;103300.34;6202613;22;20384;-93
2024/01/31 07:32:25;;;;;;;1.98;1.88;;;;;;;0.34;49.49;103294.84;6181897;22;20408;-89
2024/01/31 07:34:56;;;;;;;1.37;1.23;;;;;;;0.48;49.32;103303.19;6226636;23;20417;-88
2024/01/31 07:37:23;;;;;;;1.55;1.45;;;;;;;0.65;49.44;103296.66;6211484;23;20367;-90
2024/01/31 07:39:56;;;;;;;0.80;0.80;;;;;;;0.81;49.02;103287.53;6232167;23;20370;-92
2024/01/31 07:42:22;;;;;;;2.88;2.58;;;;;;;0.96;48.93;103288.84;6225330;23;20441;-91
2024/01/31 07:44:51;;;;;;;0.45;0.45;;;;;;;1.03;48.88;103286.91;6200952;23;20398;-91
2024/01/31 07:47:25;;;;;;;0.87;0.87;;;;;;;1.13;48.75;103284.00;6259760;23;20351;-92
2024/01/31 07:49:50;;;;;;;0.40;0.40;;;;;;;1.32;48.61;103293.88;6208615;23;20386;-91
2024/01/31 07:52:21;;;;;;;0.50;0.50;;;;;;;1.38;48.67;103285.84;6225962;23;20427;-90
2024/01/31 07:54:48;;;;;;;1.90;1.80;;;;;;;1.49;48.64;103285.53;6238459;23;20362;-90
2024/01/31 07:59:50;;;;;;;0.80;0.80;;;;;;;1.67;48.51;103271.03;6233536;22;20383;-93
2024/01/31 08:02:17;;;;;;;1.10;1.00;;;;;;;1.79;48.63;103275.00;6272868;22;20361;-91
2024/01/31 08:04:43;;;;;;;0.90;0.90;;;;;;;1.82;48.55;103270.53;6258779;23;20380;-89
2024/01/31 08:07:15;;;;;;;1.40;1.30;;;;;;;1.83;48.62;103258.31;6226592;23;20444;-88
2024/01/31 08:09:41;;;;;;;0.37;0.37;;;;;;;1.97;48.49;103253.47;6258469;23;20360;-88
2024/01/31 08:12:07;;;;;;;0.50;0.50;;;;;;;2.10;48.63;103265.22;6229966;23;20357;-90
2024/01/31 08:14:33;;;;;;;0.20;0.20;;;;;;;2.15;48.59;103238.91;6228621;23;20360;-90
2024/01/31 08:17:12;;;;;;;0.82;0.82;;;;;;;2.28;48.56;103247.19;6229159;23;20353;-91
2024/01/31 08:19:49;;;;;;;0.30;0.30;;;;;;;2.35;48.41;103238.22;6229150;23;20349;-91
2024/01/31 08:22:17;;;;;;;0.38;0.38;;;;;;;2.53;48.44;103243.72;6231125;23;20361;-88
2024/01/31 08:24:42;;;;;;;2.60;2.20;;;;;;;2.65;48.38;103249.38;6224529;23;20701;-89
2024/01/31 08:27:08;;;;;;;0.10;0.10;;;;;;;2.76;48.42;103243.75;6228571;23;20388;-91
2024/01/31 08:29:34;;;;;;;0.20;0.20;;;;;;;2.92;48.37;103249.28;6232978;23;20365;-87
2024/01/31 08:32:04;;;;;;;0.50;0.50;;;;;;;3.02;48.12;103245.38;6231686;23;20357;-87
2024/01/31 08:34:39;;;;;;;0.30;0.30;;;;;;;3.05;47.85;103250.50;6227889;23;20353;-90
2024/01/31 08:37:08;;;;;;;0.15;0.15;;;;;;;3.18;47.54;103240.41;6226147;23;20421;-90
2024/01/31 08:39:34;;;;;;;1.20;0.50;;;;;;;3.21;47.69;103248.16;6252589;23;20333;-91
2024/01/31 08:42:00;;;;;;;0.47;0.47;;;;;;;3.28;47.87;103248.78;6227023;23;20357;-91
2024/01/31 08:44:27;;;;;;;0.30;0.30;;;;;;;3.28;47.65;103247.91;6229527;23;20357;-92
2024/01/31 08:46:54;;;;;;;0.63;0.63;;;;;;;3.34;47.35;103245.91;6234355;23;20364;-91
2024/01/31 08:49:21;;;;;;;0.70;0.70;;;;;;;3.39;47.64;103243.13;6216359;22;20357;-90
2024/01/31 08:51:53;;;;;;;3.00;1.10;;;;;;;3.38;47.29;103237.00;6239438;23;20441;-90
2024/01/31 08:54:35;;;;;;;0.80;0.60;;;;;;;3.30;46.99;103246.94;6233527;23;20404;-91
2024/01/31 08:57:00;;;;;;;0.30;0.30;;;;;;;3.33;47.43;103245.97;6207202;23;20397;-91
2024/01/31 08:59:28;;;;;;;0.80;0.80;;;;;;;3.52;47.16;103240.84;6229544;23;20360;-88
2024/01/31 09:02:12;;;;;;;0.50;0.50;;;;;;;3.58;46.95;103238.84;6240410;22;20372;-93
2024/01/31 09:07:34;;;;;;;0.50;0.50;;;;;;;3.84;46.95;103236.91;6237842;22;20386;-90
2024/01/31 09:10:00;;;;;;;0.30;0.30;;;;;;;3.91;46.68;103225.25;6204986;22;20432;-90
2024/01/31 09:12:30;;;;;;;0.30;0.30;;;;;;;4.01;46.67;103226.53;6245203;23;20357;-93
2024/01/31 09:14:59;;;;;;;0.40;0.40;;;;;;;4.03;46.40;103218.59;6260282;23;20357;-93
2024/01/31 09:17:25;;;;;;;0.50;0.50;;;;;;;4.21;46.31;103215.22;6257045;23;20412;-91
2024/01/31 09:19:50;;;;;;;0.10;0.10;;;;;;;4.29;46.46;103221.91;6254761;23;20369;-91
2024/01/31 09:22:24;;;;;;;0.30;0.30;;;;;;;4.30;46.43;103202.59;6254474;23;20377;-92
2024/01/31 09:24:51;;;;;;;0.20;0.20;;;;;;;4.29;46.41;103211.41;6166880;23;20371;-91
2024/01/31 09:27:19;;;;;;;0.40;0.40;;;;;;;4.26;46.01;103201.03;6193185;23;20388;-90
2024/01/31 09:29:48;;;;;;;0.10;0.10;;;;;;;4.22;46.17;103190.66;6168404;23;20443;-89
2024/01/31 09:32:17;;;;;;;0.45;0.45;;;;;;;4.35;46.10;103195.38;6192011;23;20380;-90
2024/01/31 09:34:43;;;;;;;0.82;0.82;;;;;;;4.24;46.17;103205.50;6167062;23;20364;-88
2024/01/31 09:37:09;;;;;;;0.57;0.43;;;;;;;4.17;46.05;103186.53;6164512;23;20368;-87
2024/01/31 09:39:35;;;;;;;0.40;0.40;;;;;;;4.18;46.15;103178.59;6164111;23;20775;-87
2024/01/31 09:42:04;;;;;;;0.10;0.10;;;;;;;4.30;45.77;103181.59;6163061;23;20410;-87
2024/01/31 09:44:34;;;;;;;1.50;0.98;;;;;;;4.52;45.70;103184.09;6165774;23;20395;-90
2024/01/31 09:47:00;;;;;;;0.50;0.50;;;;;;;4.68;45.62;103171.09;6165643;23;20365;-89
2024/01/31 09:49:26;;;;;;;0.40;0.40;;;;;;;4.89;45.64;103171.91;6207210;23;20368;-90
2024/01/31 09:51:59;;;;;;;0.30;0.30;;;;;;;5.00;45.21;103166.97;6256709;23;20361;-90
2024/01/31 09:54:33;;;;;;;0.40;0.40;;;;;;;5.06;45.36;103156.19;6253938;22;20349;-89
2024/01/31 09:57:00;;;;;;;0.30;0.30;;;;;;;5.09;45.08;103152.53;6250177;23;20349;-89
2024/01/31 09:59:28;;;;;;;0.38;0.38;;;;;;;5.17;45.04;103155.66;6252878;23;20385;-88
2024/01/31 10:02:02;;;;;;;0.40;0.40;;;;;;;5.20;45.47;103138.88;6248616;23;20363;-87
2024/01/31 10:04:28;;;;;;;0.63;0.63;;;;;;;5.33;44.98;103132.94;6248787;23;20423;-91
2024/01/31 10:06:53;;;;;;;0.40;0.40;;;;;;;5.46;45.10;103137.59;6250950;23;20736;-91
2024/01/31 10:09:19;;;;;;;0.40;0.40;;;;;;;5.36;45.09;103124.03;6249712;23;20369;-90
2024/01/31 10:11:48;;;;;;;0.35;0.35;;;;;;;5.50;45.39;103120.72;6226818;23;20353;-90
2024/01/31 10:14:15;;;;;;;0.40;0.40;;;;;;;5.69;44.87;103116.25;6251997;23;20353;-88
2024/01/31 10:16:41;;;;;;;0.30;0.30;;;;;;;5.85;44.63;103110.16;6227413;23;20385;-90
2024/01/31 10:19:08;;;;;;;0.60;0.60;;;;;;;5.81;44.74;103113.91;6230873;23;20365;-88
2024/01/31 10:21:36;;;;;;;0.38;0.38;;;;;;;5.87;45.08;103108.28;6228822;23;20357;-89
2024/01/31 10:24:02;;;;;;;0.32;0.32;;;;;;;6.00;44.84;103103.31;6224198;23;20356;-86
2024/01/31 10:26:30;;;;;;;0.60;0.60;;;;;;;6.10;45.06;103099.22;6226356;23;20356;-93
2024/01/31 10:29:02;;;;;;;0.30;0.30;;;;;;;6.15;44.93;103085.81;6224858;23;20693;-87
2024/01/31 10:31:31;;;;;;;0.95;0.85;;;;;;;6.21;44.89;103088.13;6228842;23;20448;-90
2024/01/31 10:34:00;;;;;;;0.27;0.27;;;;;;;6.18;44.37;103085.66;6225025;23;20462;-88
2024/01/31 10:36:27;;;;;;;1.23;0.77;;;;;;;6.28;44.48;103077.19;6168716;23;20354;-90
2024/01/31 10:38:56;;;;;;;2.28;1.55;;;;;;;6.47;44.44;103074.38;6152168;23;20362;-90
2024/01/31 10:41:24;;;;;;;0.57;0.57;;;;;;;6.45;43.82;103062.22;6142664;23;20428;-91
2024/01/31 10:43:52;;;;;;;0.52;0.52;;;;;;;6.38;44.48;103064.34;6159894;23;20350;-90
2024/01/31 10:46:20;;;;;;;0.68;0.57;;;;;;;6.49;43.91;103069.03;6131962;23;20379;-90
2024/01/31 10:48:46;;;;;;;1.20;0.70;;;;;;;6.43;43.82;103057.03;6134019;23;20401;-90
2024/01/31 10:51:15;;;;;;;0.43;0.43;;;;;;;6.45;43.98;103064.88;6135224;23;20370;-89
2024/01/31 10:53:43;;;;;;;1.83;1.35;;;;;;;6.47;43.69;103049.81;6134578;23;20360;-90
2024/01/31 10:56:17;;;;;;;0.55;0.55;;;;;;;6.47;43.55;103042.75;6138142;23;20350;-89
2024/01/31 10:58:48;;;;;;;0.33;0.33;;;;;;;6.57;43.65;103036.97;6170721;23;20346;-87
2024/01/31 11:01:19;;;;;;;1.60;1.50;;;;;;;6.58;43.54;103038.69;6150601;23;20385;-90
2024/01/31 11:03:49;;;;;;;0.50;0.50;;;;;;;6.61;43.67;103034.09;6138528;23;20426;-90
2024/01/31 11:06:21;;;;;;;0.57;0.57;;;;;;;6.70;43.27;103035.34;6136229;23;20416;-90
2024/01/31 11:08:50;;;;;;;1.45;1.30;;;;;;;6.73;43.30;103031.69;6114434;23;20480;-91
2024/01/31 11:11:22;;;;;;;0.45;0.45;;;;;;;6.76;42.81;103026.25;6136701;23;20392;-90
2024/01/31 11:13:47;;;;;;;0.90;0.90;;;;;;;6.76;43.39;103031.50;6179150;23;20428;-90
2024/01/31 11:16:24;;;;;;;0.30;0.30;;;;;;;6.81;42.70;103014.50;6255528;23;20361;-89
2024/01/31 11:18:55;;;;;;;0.82;0.75;;;;;;;6.95;42.56;103007.56;6256167;22;20428;-89
2024/01/31 11:21:26;;;;;;;0.70;0.70;;;;;;;7.01;42.85;103005.41;6255152;23;20357;-89
2024/01/31 11:23:56;;;;;;;0.50;0.50;;;;;;;7.10;42.62;103001.41;6256456;23;20671;-89
2024/01/31 11:26:30;;;;;;;0.50;0.40;;;;;;;7.12;42.80;102996.88;6254937;23;20744;-89
2024/01/31 11:29:01;;;;;;;0.60;0.60;;;;;;;7.11;42.09;102989.88;6200729;23;20353;-90
2024/01/31 11:31:28;;;;;;;0.30;0.30;;;;;;;7.30;42.31;102991.44;6259661;23;20859;-91
2024/01/31 11:33:56;;;;;;;1.27;1.20;;;;;;;7.38;41.96;102994.44;6255354;23;20353;-90
2024/01/31 11:36:30;;;;;;;0.30;0.30;;;;;;;7.36;42.28;102983.16;6252780;23;20365;-90
2024/01/31 11:38:57;;;;;;;0.50;0.50;;;;;;;7.36;41.69;102989.25;6254965;23;20361;-90
2024/01/31 11:41:27;;;;;;;0.60;0.60;;;;;;;7.34;42.01;102971.84;6229963;23;20357;-90
2024/01/31 11:43:55;;;;;;;0.20;0.20;;;;;;;7.43;41.51;102980.03;6229035;23;20852;-90
2024/01/31 11:46:20;;;;;;;0.40;0.40;;;;;;;7.51;41.69;102973.44;6250279;23;20442;-90
2024/01/31 11:48:53;;;;;;;0.40;0.40;;;;;;;7.51;41.29;102962.88;6228794;23;20391;-89
2024/01/31 11:51:20;;;;;;;1.10;0.90;;;;;;;7.47;41.62;102975.41;6228184;23;20856;-90
2024/01/31 11:53:46;;;;;;;0.60;0.60;;;;;;;7.47;41.51;102971.00;6225021;23;20504;-91
2024/01/31 11:56:30;;;;;;;0.50;0.50;;;;;;;7.38;41.58;102958.38;6226740;23;20440;-90
2024/01/31 11:58:57;;;;;;;0.80;0.80;;;;;;;7.50;41.39;102958.56;6253840;23;20824;-91
2024/01/31 12:01:24;;;;;;;0.60;0.60;;;;;;;7.54;41.40;102950.34;6227886;23;20358;-91
2024/01/31 12:03:53;;;;;;;1.50;0.90;;;;;;;7.70;41.38;102946.78;6226197;23;20357;-90
2024/01/31 12:06:19;;;;;;;2.80;1.10;;;;;;;7.68;40.68;102940.75;6225300;23;20709;-88
2024/01/31 12:08:49;;;;;;;0.50;0.40;;;;;;;7.76;40.88;102934.03;6198004;23;20357;-90